sensor_id;sensor_type;location;lat;lon;timestamp;P1;durP1;ratioP1;P2;durP2;ratioP2
35462;SDS011;21578;47.892;9.970;2023-06-24T00:01:08;3.50;;;3.20;;
35462;SDS011;21578;47.892;9.970;2023-06-24T00:05:58;3.47;;;3.07;;
35462;SDS011;21578;47.892;9.970;2023-06-24T00:10:48;3.93;;;3.03;;
35462;SDS011;21578;47.892;9.970;2023-06-24T00:15:35;4.67;;;3.20;;
35462;SDS011;21578;47.892;9.970;2023-06-24T00:20:23;3.50;;;3.20;;
35462;SDS011;21578;47.892;9.970;2023-06-24T00:25:11;3.43;;;3.13;;
35462;SDS011;21578;47.892;9.970;2023-06-24T00:29:58;3.37;;;3.07;;
35462;SDS011;21578;47.892;9.970;2023-06-24T00:34:45;3.60;;;3.03;;
35462;SDS011;21578;47.892;9.970;2023-06-24T00:39:34;5.73;;;3.50;;
35462;SDS011;21578;47.892;9.970;2023-06-24T00:44:23;3.67;;;3.37;;
35462;SDS011;21578;47.892;9.970;2023-06-24T00:49:10;3.50;;;3.20;;
35462;SDS011;21578;47.892;9.970;2023-06-24T00:53:59;3.10;;;2.90;;
35462;SDS011;21578;47.892;9.970;2023-06-24T00:58:47;4.07;;;3.20;;
35462;SDS011;21578;47.892;9.970;2023-06-24T01:03:36;3.60;;;3.30;;
35462;SDS011;21578;47.892;9.970;2023-06-24T01:08:23;3.60;;;3.30;;
35462;SDS011;21578;47.892;9.970;2023-06-24T01:13:10;3.00;;;2.70;;
35462;SDS011;21578;47.892;9.970;2023-06-24T01:18:01;3.50;;;3.10;;
35462;SDS011;21578;47.892;9.970;2023-06-24T01:22:59;6.67;;;3.20;;
35462;SDS011;21578;47.892;9.970;2023-06-24T01:28:30;3.40;;;3.10;;
35462;SDS011;21578;47.892;9.970;2023-06-24T01:33:38;3.47;;;3.20;;
35462;SDS011;21578;47.892;9.970;2023-06-24T01:38:35;3.63;;;3.33;;
35462;SDS011;21578;47.892;9.970;2023-06-24T01:43:28;3.13;;;2.83;;
35462;SDS011;21578;47.892;9.970;2023-06-24T01:48:18;3.47;;;3.17;;
35462;SDS011;21578;47.892;9.970;2023-06-24T01:53:10;3.77;;;3.03;;
35462;SDS011;21578;47.892;9.970;2023-06-24T01:57:59;3.93;;;3.10;;
35462;SDS011;21578;47.892;9.970;2023-06-24T02:02:49;3.30;;;3.00;;
35462;SDS011;21578;47.892;9.970;2023-06-24T02:07:37;3.20;;;2.97;;
35462;SDS011;21578;47.892;9.970;2023-06-24T02:12:27;3.53;;;3.03;;
35462;SDS011;21578;47.892;9.970;2023-06-24T02:17:16;3.10;;;2.80;;
35462;SDS011;21578;47.892;9.970;2023-06-24T02:22:05;3.97;;;3.50;;
35462;SDS011;21578;47.892;9.970;2023-06-24T02:26:55;3.33;;;3.03;;
35462;SDS011;21578;47.892;9.970;2023-06-24T02:31:45;3.70;;;3.03;;
35462;SDS011;21578;47.892;9.970;2023-06-24T02:36:31;3.17;;;2.97;;
35462;SDS011;21578;47.892;9.970;2023-06-24T02:41:18;2.90;;;2.70;;
35462;SDS011;21578;47.892;9.970;2023-06-24T02:46:05;3.07;;;2.50;;
35462;SDS011;21578;47.892;9.970;2023-06-24T02:50:55;2.87;;;2.67;;
35462;SDS011;21578;47.892;9.970;2023-06-24T02:55:43;2.97;;;2.63;;
35462;SDS011;21578;47.892;9.970;2023-06-24T03:00:31;3.23;;;3.03;;
35462;SDS011;21578;47.892;9.970;2023-06-24T03:05:19;3.37;;;3.17;;
35462;SDS011;21578;47.892;9.970;2023-06-24T03:10:08;3.10;;;2.90;;
35462;SDS011;21578;47.892;9.970;2023-06-24T03:14:56;5.33;;;3.00;;
35462;SDS011;21578;47.892;9.970;2023-06-24T03:19:42;3.07;;;2.87;;
35462;SDS011;21578;47.892;9.970;2023-06-24T03:24:29;2.77;;;2.57;;
35462;SDS011;21578;47.892;9.970;2023-06-24T03:29:17;3.13;;;2.87;;
35462;SDS011;21578;47.892;9.970;2023-06-24T03:34:05;3.33;;;2.93;;
35462;SDS011;21578;47.892;9.970;2023-06-24T03:38:51;3.33;;;3.03;;
35462;SDS011;21578;47.892;9.970;2023-06-24T03:43:38;3.57;;;3.27;;
35462;SDS011;21578;47.892;9.970;2023-06-24T03:48:28;3.83;;;3.53;;
35462;SDS011;21578;47.892;9.970;2023-06-24T03:53:15;5.10;;;3.40;;
35462;SDS011;21578;47.892;9.970;2023-06-24T03:58:02;4.03;;;3.67;;
35462;SDS011;21578;47.892;9.970;2023-06-24T04:02:48;3.80;;;3.47;;
35462;SDS011;21578;47.892;9.970;2023-06-24T04:07:38;4.27;;;3.87;;
35462;SDS011;21578;47.892;9.970;2023-06-24T04:12:25;3.83;;;3.40;;
35462;SDS011;21578;47.892;9.970;2023-06-24T04:17:12;3.83;;;3.47;;
35462;SDS011;21578;47.892;9.970;2023-06-24T04:21:59;4.70;;;3.47;;
35462;SDS011;21578;47.892;9.970;2023-06-24T04:26:47;4.00;;;3.60;;
35462;SDS011;21578;47.892;9.970;2023-06-24T04:31:34;3.63;;;3.30;;
35462;SDS011;21578;47.892;9.970;2023-06-24T04:36:21;3.63;;;2.50;;
35462;SDS011;21578;47.892;9.970;2023-06-24T04:41:08;3.47;;;3.10;;
35462;SDS011;21578;47.892;9.970;2023-06-24T04:45:56;3.57;;;3.27;;
35462;SDS011;21578;47.892;9.970;2023-06-24T04:50:43;4.73;;;3.13;;
35462;SDS011;21578;47.892;9.970;2023-06-24T04:55:30;3.47;;;3.17;;
35462;SDS011;21578;47.892;9.970;2023-06-24T05:00:17;2.93;;;2.73;;
35462;SDS011;21578;47.892;9.970;2023-06-24T05:05:05;3.20;;;2.90;;
35462;SDS011;21578;47.892;9.970;2023-06-24T05:09:53;3.63;;;3.33;;
35462;SDS011;21578;47.892;9.970;2023-06-24T05:14:40;3.07;;;2.63;;
35462;SDS011;21578;47.892;9.970;2023-06-24T05:19:27;3.10;;;2.87;;
35462;SDS011;21578;47.892;9.970;2023-06-24T05:24:15;3.60;;;3.03;;
35462;SDS011;21578;47.892;9.970;2023-06-24T05:29:02;4.20;;;3.80;;
35462;SDS011;21578;47.892;9.970;2023-06-24T05:33:49;5.40;;;4.30;;
35462;SDS011;21578;47.892;9.970;2023-06-24T05:38:36;4.40;;;4.00;;
35462;SDS011;21578;47.892;9.970;2023-06-24T05:43:30;4.33;;;3.87;;
35462;SDS011;21578;47.892;9.970;2023-06-24T05:48:17;4.53;;;4.13;;
35462;SDS011;21578;47.892;9.970;2023-06-24T05:53:04;3.93;;;3.63;;
35462;SDS011;21578;47.892;9.970;2023-06-24T05:57:52;4.07;;;3.73;;
35462;SDS011;21578;47.892;9.970;2023-06-24T06:02:43;40.10;;;27.60;;
35462;SDS011;21578;47.892;9.970;2023-06-24T06:07:33;27.87;;;25.10;;
35462;SDS011;21578;47.892;9.970;2023-06-24T06:12:20;411.30;;;295.00;;
35462;SDS011;21578;47.892;9.970;2023-06-24T06:17:06;410.90;;;271.57;;
35462;SDS011;21578;47.892;9.970;2023-06-24T06:21:56;665.77;;;455.83;;
35462;SDS011;21578;47.892;9.970;2023-06-24T06:26:44;869.53;;;659.33;;
35462;SDS011;21578;47.892;9.970;2023-06-24T06:31:32;999.53;;;764.13;;
35462;SDS011;21578;47.892;9.970;2023-06-24T06:36:20;53.17;;;42.20;;
35462;SDS011;21578;47.892;9.970;2023-06-24T06:41:12;21.07;;;18.97;;
35462;SDS011;21578;47.892;9.970;2023-06-24T06:45:59;14.60;;;13.30;;
35462;SDS011;21578;47.892;9.970;2023-06-24T06:50:45;4.00;;;3.60;;
35462;SDS011;21578;47.892;9.970;2023-06-24T06:55:35;5.67;;;5.07;;
35462;SDS011;21578;47.892;9.970;2023-06-24T07:00:24;11.60;;;10.23;;
35462;SDS011;21578;47.892;9.970;2023-06-24T07:05:11;4.87;;;3.67;;
35462;SDS011;21578;47.892;9.970;2023-06-24T07:09:58;4.50;;;4.20;;
35462;SDS011;21578;47.892;9.970;2023-06-24T07:14:44;4.70;;;3.80;;
35462;SDS011;21578;47.892;9.970;2023-06-24T07:19:33;4.33;;;4.03;;
35462;SDS011;21578;47.892;9.970;2023-06-24T07:24:20;5.03;;;3.93;;
35462;SDS011;21578;47.892;9.970;2023-06-24T07:29:07;5.53;;;4.37;;
35462;SDS011;21578;47.892;9.970;2023-06-24T07:33:54;4.80;;;4.30;;
35462;SDS011;21578;47.892;9.970;2023-06-24T07:38:42;4.27;;;3.90;;
35462;SDS011;21578;47.892;9.970;2023-06-24T07:43:29;4.00;;;3.60;;
35462;SDS011;21578;47.892;9.970;2023-06-24T07:48:16;4.70;;;4.30;;
35462;SDS011;21578;47.892;9.970;2023-06-24T07:53:02;5.07;;;4.10;;
35462;SDS011;21578;47.892;9.970;2023-06-24T07:57:51;4.03;;;3.73;;
35462;SDS011;21578;47.892;9.970;2023-06-24T08:02:38;3.57;;;3.13;;
35462;SDS011;21578;47.892;9.970;2023-06-24T08:07:28;4.33;;;3.93;;
35462;SDS011;21578;47.892;9.970;2023-06-24T08:12:15;3.93;;;3.63;;
35462;SDS011;21578;47.892;9.970;2023-06-24T08:17:03;5.27;;;3.50;;
35462;SDS011;21578;47.892;9.970;2023-06-24T08:21:50;4.33;;;3.73;;
35462;SDS011;21578;47.892;9.970;2023-06-24T08:26:37;4.37;;;3.30;;
35462;SDS011;21578;47.892;9.970;2023-06-24T08:31:24;3.60;;;3.07;;
35462;SDS011;21578;47.892;9.970;2023-06-24T08:36:12;4.30;;;3.90;;
35462;SDS011;21578;47.892;9.970;2023-06-24T08:40:59;4.30;;;4.00;;
35462;SDS011;21578;47.892;9.970;2023-06-24T08:45:46;4.40;;;4.07;;
35462;SDS011;21578;47.892;9.970;2023-06-24T08:50:34;4.00;;;3.63;;
35462;SDS011;21578;47.892;9.970;2023-06-24T08:55:25;3.73;;;3.43;;
35462;SDS011;21578;47.892;9.970;2023-06-24T09:00:17;4.57;;;3.90;;
35462;SDS011;21578;47.892;9.970;2023-06-24T09:05:05;3.87;;;3.60;;
35462;SDS011;21578;47.892;9.970;2023-06-24T09:09:52;4.30;;;3.90;;
35462;SDS011;21578;47.892;9.970;2023-06-24T09:14:40;3.77;;;3.43;;
35462;SDS011;21578;47.892;9.970;2023-06-24T09:19:28;3.60;;;3.30;;
35462;SDS011;21578;47.892;9.970;2023-06-24T09:24:17;4.47;;;3.63;;
35462;SDS011;21578;47.892;9.970;2023-06-24T09:29:04;3.80;;;3.50;;
35462;SDS011;21578;47.892;9.970;2023-06-24T09:33:56;4.47;;;3.43;;
35462;SDS011;21578;47.892;9.970;2023-06-24T09:38:44;3.03;;;2.83;;
35462;SDS011;21578;47.892;9.970;2023-06-24T09:43:34;2.90;;;2.70;;
35462;SDS011;21578;47.892;9.970;2023-06-24T09:48:22;5.37;;;3.33;;
35462;SDS011;21578;47.892;9.970;2023-06-24T09:53:10;3.43;;;3.00;;
35462;SDS011;21578;47.892;9.970;2023-06-24T09:58:01;2.97;;;2.77;;
35462;SDS011;21578;47.892;9.970;2023-06-24T10:02:51;3.43;;;3.13;;
35462;SDS011;21578;47.892;9.970;2023-06-24T10:07:40;3.90;;;3.60;;
35462;SDS011;21578;47.892;9.970;2023-06-24T10:12:29;3.40;;;3.20;;
35462;SDS011;21578;47.892;9.970;2023-06-24T10:17:17;5.03;;;4.50;;
35462;SDS011;21578;47.892;9.970;2023-06-24T10:22:03;4.33;;;3.07;;
35462;SDS011;21578;47.892;9.970;2023-06-24T10:26:55;4.00;;;3.70;;
35462;SDS011;21578;47.892;9.970;2023-06-24T10:31:53;4.67;;;3.17;;
35462;SDS011;21578;47.892;9.970;2023-06-24T10:36:42;3.97;;;3.33;;
35462;SDS011;21578;47.892;9.970;2023-06-24T10:41:39;3.57;;;3.27;;
35462;SDS011;21578;47.892;9.970;2023-06-24T10:46:26;3.40;;;3.17;;
35462;SDS011;21578;47.892;9.970;2023-06-24T10:51:14;2.67;;;2.57;;
35462;SDS011;21578;47.892;9.970;2023-06-24T10:56:01;2.73;;;2.53;;
35462;SDS011;21578;47.892;9.970;2023-06-24T11:00:48;2.90;;;2.70;;
35462;SDS011;21578;47.892;9.970;2023-06-24T11:05:37;3.00;;;2.80;;
35462;SDS011;21578;47.892;9.970;2023-06-24T11:10:27;2.90;;;2.63;;
35462;SDS011;21578;47.892;9.970;2023-06-24T11:15:14;3.20;;;2.90;;
35462;SDS011;21578;47.892;9.970;2023-06-24T11:20:01;2.80;;;2.60;;
35462;SDS011;21578;47.892;9.970;2023-06-24T11:24:48;2.87;;;2.40;;
35462;SDS011;21578;47.892;9.970;2023-06-24T11:29:37;2.37;;;2.27;;
35462;SDS011;21578;47.892;9.970;2023-06-24T11:34:24;4.93;;;4.53;;
35462;SDS011;21578;47.892;9.970;2023-06-24T11:39:20;2.57;;;2.40;;
35462;SDS011;21578;47.892;9.970;2023-06-24T11:44:08;3.03;;;2.80;;
35462;SDS011;21578;47.892;9.970;2023-06-24T11:49:03;4.90;;;3.10;;
35462;SDS011;21578;47.892;9.970;2023-06-24T11:53:51;3.20;;;3.00;;
35462;SDS011;21578;47.892;9.970;2023-06-24T11:58:37;2.80;;;2.60;;
35462;SDS011;21578;47.892;9.970;2023-06-24T12:03:25;2.93;;;2.73;;
35462;SDS011;21578;47.892;9.970;2023-06-24T12:08:15;3.00;;;2.70;;
35462;SDS011;21578;47.892;9.970;2023-06-24T12:13:03;3.07;;;2.50;;
35462;SDS011;21578;47.892;9.970;2023-06-24T12:17:51;3.50;;;3.20;;
35462;SDS011;21578;47.892;9.970;2023-06-24T12:22:38;3.03;;;2.63;;
35462;SDS011;21578;47.892;9.970;2023-06-24T12:27:27;3.30;;;3.00;;
35462;SDS011;21578;47.892;9.970;2023-06-24T12:32:14;3.70;;;3.40;;
35462;SDS011;21578;47.892;9.970;2023-06-24T12:37:01;3.67;;;3.37;;
35462;SDS011;21578;47.892;9.970;2023-06-24T12:41:48;4.17;;;3.33;;
35462;SDS011;21578;47.892;9.970;2023-06-24T12:46:36;3.77;;;3.37;;
35462;SDS011;21578;47.892;9.970;2023-06-24T12:51:23;3.37;;;3.13;;
35462;SDS011;21578;47.892;9.970;2023-06-24T12:56:10;3.60;;;3.30;;
35462;SDS011;21578;47.892;9.970;2023-06-24T13:00:57;3.63;;;3.33;;
35462;SDS011;21578;47.892;9.970;2023-06-24T13:05:46;6.13;;;3.20;;
35462;SDS011;21578;47.892;9.970;2023-06-24T13:10:35;3.93;;;3.20;;
35462;SDS011;21578;47.892;9.970;2023-06-24T13:15:23;3.20;;;2.90;;
35462;SDS011;21578;47.892;9.970;2023-06-24T13:20:10;3.50;;;2.80;;
35462;SDS011;21578;47.892;9.970;2023-06-24T13:25:01;3.17;;;2.97;;
35462;SDS011;21578;47.892;9.970;2023-06-24T13:29:49;3.30;;;3.10;;
35462;SDS011;21578;47.892;9.970;2023-06-24T13:40:22;2.80;;;2.60;;
35462;SDS011;21578;47.892;9.970;2023-06-24T13:45:10;3.60;;;2.90;;
35462;SDS011;21578;47.892;9.970;2023-06-24T13:49:59;3.50;;;3.20;;
35462;SDS011;21578;47.892;9.970;2023-06-24T13:54:46;3.50;;;3.30;;
35462;SDS011;21578;47.892;9.970;2023-06-24T13:59:35;3.70;;;3.40;;
35462;SDS011;21578;47.892;9.970;2023-06-24T14:04:21;3.47;;;3.17;;
35462;SDS011;21578;47.892;9.970;2023-06-24T14:09:08;3.40;;;3.20;;
35462;SDS011;21578;47.892;9.970;2023-06-24T14:13:56;3.30;;;3.00;;
35462;SDS011;21578;47.892;9.970;2023-06-24T14:18:50;3.87;;;3.43;;
35462;SDS011;21578;47.892;9.970;2023-06-24T14:23:37;3.17;;;2.87;;
35462;SDS011;21578;47.892;9.970;2023-06-24T14:28:25;3.30;;;3.10;;
35462;SDS011;21578;47.892;9.970;2023-06-24T14:33:12;3.10;;;2.90;;
35462;SDS011;21578;47.892;9.970;2023-06-24T14:38:01;3.20;;;2.90;;
35462;SDS011;21578;47.892;9.970;2023-06-24T14:42:48;3.73;;;3.43;;
35462;SDS011;21578;47.892;9.970;2023-06-24T14:47:35;3.20;;;3.00;;
35462;SDS011;21578;47.892;9.970;2023-06-24T14:52:22;4.77;;;3.30;;
35462;SDS011;21578;47.892;9.970;2023-06-24T14:57:11;4.07;;;3.20;;
35462;SDS011;21578;47.892;9.970;2023-06-24T15:01:57;3.50;;;3.20;;
35462;SDS011;21578;47.892;9.970;2023-06-24T15:06:44;4.13;;;3.10;;
35462;SDS011;21578;47.892;9.970;2023-06-24T15:11:31;2.88;;;2.67;;
35462;SDS011;21578;47.892;9.970;2023-06-24T15:16:22;3.57;;;3.30;;
35462;SDS011;21578;47.892;9.970;2023-06-24T15:21:09;3.45;;;3.03;;
35462;SDS011;21578;47.892;9.970;2023-06-24T15:25:56;3.30;;;3.00;;
35462;SDS011;21578;47.892;9.970;2023-06-24T15:30:43;3.17;;;2.97;;
35462;SDS011;21578;47.892;9.970;2023-06-24T15:35:34;3.30;;;3.10;;
35462;SDS011;21578;47.892;9.970;2023-06-24T15:40:21;3.27;;;2.97;;
35462;SDS011;21578;47.892;9.970;2023-06-24T15:45:08;3.03;;;2.50;;
35462;SDS011;21578;47.892;9.970;2023-06-24T15:49:55;2.85;;;2.65;;
35462;SDS011;21578;47.892;9.970;2023-06-24T15:54:44;3.30;;;3.10;;
35462;SDS011;21578;47.892;9.970;2023-06-24T15:59:31;2.85;;;2.58;;
35462;SDS011;21578;47.892;9.970;2023-06-24T16:04:18;2.60;;;2.40;;
35462;SDS011;21578;47.892;9.970;2023-06-24T16:09:05;3.55;;;3.25;;
35462;SDS011;21578;47.892;9.970;2023-06-24T16:13:53;3.03;;;2.72;;
35462;SDS011;21578;47.892;9.970;2023-06-24T16:18:40;2.67;;;2.45;;
35462;SDS011;21578;47.892;9.970;2023-06-24T16:23:27;3.58;;;2.90;;
35462;SDS011;21578;47.892;9.970;2023-06-24T16:28:13;3.80;;;2.97;;
35462;SDS011;21578;47.892;9.970;2023-06-24T16:33:02;2.50;;;2.40;;
35462;SDS011;21578;47.892;9.970;2023-06-24T16:37:49;3.03;;;2.80;;
35462;SDS011;21578;47.892;9.970;2023-06-24T16:42:35;2.70;;;2.50;;
35462;SDS011;21578;47.892;9.970;2023-06-24T16:47:22;3.03;;;2.83;;
35462;SDS011;21578;47.892;9.970;2023-06-24T16:52:12;3.03;;;2.83;;
35462;SDS011;21578;47.892;9.970;2023-06-24T16:56:59;3.13;;;2.93;;
35462;SDS011;21578;47.892;9.970;2023-06-24T17:01:46;3.23;;;3.03;;
35462;SDS011;21578;47.892;9.970;2023-06-24T17:06:32;3.20;;;2.90;;
35462;SDS011;21578;47.892;9.970;2023-06-24T17:11:21;3.10;;;2.90;;
35462;SDS011;21578;47.892;9.970;2023-06-24T17:16:08;3.00;;;2.80;;
35462;SDS011;21578;47.892;9.970;2023-06-24T17:20:54;2.80;;;2.60;;
35462;SDS011;21578;47.892;9.970;2023-06-24T17:25:43;3.33;;;2.67;;
35462;SDS011;21578;47.892;9.970;2023-06-24T17:30:31;3.07;;;2.60;;
35462;SDS011;21578;47.892;9.970;2023-06-24T17:35:18;2.90;;;2.70;;
35462;SDS011;21578;47.892;9.970;2023-06-24T17:40:07;3.23;;;2.80;;
35462;SDS011;21578;47.892;9.970;2023-06-24T17:44:55;3.23;;;3.03;;
35462;SDS011;21578;47.892;9.970;2023-06-24T17:49:43;3.00;;;2.80;;
35462;SDS011;21578;47.892;9.970;2023-06-24T17:54:30;4.30;;;2.90;;
35462;SDS011;21578;47.892;9.970;2023-06-24T17:59:17;3.20;;;3.00;;
35462;SDS011;21578;47.892;9.970;2023-06-24T18:04:04;2.57;;;2.43;;
35462;SDS011;21578;47.892;9.970;2023-06-24T18:08:52;2.70;;;2.50;;
35462;SDS011;21578;47.892;9.970;2023-06-24T18:13:40;2.37;;;2.23;;
35462;SDS011;21578;47.892;9.970;2023-06-24T18:18:29;3.00;;;2.80;;
35462;SDS011;21578;47.892;9.970;2023-06-24T18:23:19;3.00;;;2.80;;
35462;SDS011;21578;47.892;9.970;2023-06-24T18:28:07;2.50;;;2.30;;
35462;SDS011;21578;47.892;9.970;2023-06-24T18:32:54;2.70;;;2.50;;
35462;SDS011;21578;47.892;9.970;2023-06-24T18:37:41;3.07;;;2.77;;
35462;SDS011;21578;47.892;9.970;2023-06-24T18:42:28;2.70;;;2.50;;
35462;SDS011;21578;47.892;9.970;2023-06-24T18:47:17;3.73;;;3.43;;
35462;SDS011;21578;47.892;9.970;2023-06-24T18:52:04;2.50;;;2.30;;
35462;SDS011;21578;47.892;9.970;2023-06-24T18:56:51;2.90;;;2.67;;
35462;SDS011;21578;47.892;9.970;2023-06-24T19:01:38;4.57;;;2.70;;
35462;SDS011;21578;47.892;9.970;2023-06-24T19:06:32;3.33;;;3.07;;
35462;SDS011;21578;47.892;9.970;2023-06-24T19:11:19;2.60;;;2.40;;
35462;SDS011;21578;47.892;9.970;2023-06-24T19:16:07;3.07;;;2.83;;
35462;SDS011;21578;47.892;9.970;2023-06-24T19:20:54;2.97;;;2.77;;
35462;SDS011;21578;47.892;9.970;2023-06-24T19:25:42;3.90;;;3.10;;
35462;SDS011;21578;47.892;9.970;2023-06-24T19:30:29;2.77;;;2.50;;
35462;SDS011;21578;47.892;9.970;2023-06-24T19:35:17;3.03;;;2.80;;
35462;SDS011;21578;47.892;9.970;2023-06-24T19:45:44;2.70;;;2.50;;
35462;SDS011;21578;47.892;9.970;2023-06-24T19:50:33;2.63;;;2.53;;
35462;SDS011;21578;47.892;9.970;2023-06-24T19:55:21;4.83;;;2.90;;
35462;SDS011;21578;47.892;9.970;2023-06-24T20:00:08;3.03;;;2.83;;
35462;SDS011;21578;47.892;9.970;2023-06-24T20:04:57;2.83;;;2.57;;
35462;SDS011;21578;47.892;9.970;2023-06-24T20:09:47;3.07;;;2.50;;
35462;SDS011;21578;47.892;9.970;2023-06-24T20:14:34;2.70;;;2.50;;
35462;SDS011;21578;47.892;9.970;2023-06-24T20:19:21;3.13;;;2.93;;
35462;SDS011;21578;47.892;9.970;2023-06-24T20:24:10;2.83;;;2.63;;
35462;SDS011;21578;47.892;9.970;2023-06-24T20:28:57;3.10;;;2.90;;
35462;SDS011;21578;47.892;9.970;2023-06-24T20:33:44;3.53;;;3.33;;
35462;SDS011;21578;47.892;9.970;2023-06-24T20:38:31;3.60;;;3.30;;
35462;SDS011;21578;47.892;9.970;2023-06-24T20:43:19;3.17;;;2.97;;
35462;SDS011;21578;47.892;9.970;2023-06-24T20:48:07;3.13;;;2.83;;
35462;SDS011;21578;47.892;9.970;2023-06-24T20:52:54;3.10;;;2.80;;
35462;SDS011;21578;47.892;9.970;2023-06-24T20:57:41;3.73;;;3.30;;
35462;SDS011;21578;47.892;9.970;2023-06-24T21:02:29;3.60;;;3.30;;
35462;SDS011;21578;47.892;9.970;2023-06-24T21:07:16;3.87;;;3.07;;
35462;SDS011;21578;47.892;9.970;2023-06-24T21:12:03;3.23;;;3.03;;
35462;SDS011;21578;47.892;9.970;2023-06-24T21:16:51;3.30;;;3.00;;
35462;SDS011;21578;47.892;9.970;2023-06-24T21:21:39;3.67;;;3.27;;
35462;SDS011;21578;47.892;9.970;2023-06-24T21:26:26;3.57;;;3.27;;
35462;SDS011;21578;47.892;9.970;2023-06-24T21:31:15;3.87;;;3.20;;
35462;SDS011;21578;47.892;9.970;2023-06-24T21:36:02;3.60;;;3.30;;
35462;SDS011;21578;47.892;9.970;2023-06-24T21:40:50;3.47;;;3.17;;
35462;SDS011;21578;47.892;9.970;2023-06-24T21:45:37;3.77;;;3.37;;
35462;SDS011;21578;47.892;9.970;2023-06-24T21:50:24;3.53;;;3.20;;
35462;SDS011;21578;47.892;9.970;2023-06-24T21:55:11;5.40;;;3.93;;
35462;SDS011;21578;47.892;9.970;2023-06-24T21:59:59;4.20;;;3.80;;
35462;SDS011;21578;47.892;9.970;2023-06-24T22:04:46;3.93;;;3.50;;
35462;SDS011;21578;47.892;9.970;2023-06-24T22:09:33;4.70;;;3.40;;
35462;SDS011;21578;47.892;9.970;2023-06-24T22:14:20;4.50;;;3.50;;
35462;SDS011;21578;47.892;9.970;2023-06-24T22:19:08;4.17;;;3.70;;
35462;SDS011;21578;47.892;9.970;2023-06-24T22:23:55;4.27;;;3.33;;
35462;SDS011;21578;47.892;9.970;2023-06-24T22:28:42;3.63;;;3.33;;
35462;SDS011;21578;47.892;9.970;2023-06-24T22:33:29;3.87;;;3.57;;
35462;SDS011;21578;47.892;9.970;2023-06-24T22:38:17;4.13;;;3.40;;
35462;SDS011;21578;47.892;9.970;2023-06-24T22:43:04;3.57;;;3.27;;
35462;SDS011;21578;47.892;9.970;2023-06-24T22:47:51;3.63;;;3.33;;
35462;SDS011;21578;47.892;9.970;2023-06-24T22:52:38;4.27;;;3.70;;
35462;SDS011;21578;47.892;9.970;2023-06-24T22:57:26;5.03;;;3.40;;
35462;SDS011;21578;47.892;9.970;2023-06-24T23:02:13;3.77;;;3.47;;
35462;SDS011;21578;47.892;9.970;2023-06-24T23:07:00;4.03;;;3.73;;
35462;SDS011;21578;47.892;9.970;2023-06-24T23:11:48;3.63;;;3.33;;
35462;SDS011;21578;47.892;9.970;2023-06-24T23:16:38;3.53;;;3.23;;
35462;SDS011;21578;47.892;9.970;2023-06-24T23:21:25;3.97;;;3.67;;
35462;SDS011;21578;47.892;9.970;2023-06-24T23:26:14;3.53;;;3.30;;
35462;SDS011;21578;47.892;9.970;2023-06-24T23:31:02;3.73;;;3.43;;
35462;SDS011;21578;47.892;9.970;2023-06-24T23:35:51;3.90;;;3.60;;
35462;SDS011;21578;47.892;9.970;2023-06-24T23:40:39;3.60;;;3.30;;
35462;SDS011;21578;47.892;9.970;2023-06-24T23:45:27;4.00;;;3.20;;
35462;SDS011;21578;47.892;9.970;2023-06-24T23:50:14;3.63;;;3.33;;
35462;SDS011;21578;47.892;9.970;2023-06-24T23:55:03;3.80;;;3.40;;
35462;SDS011;21578;47.892;9.970;2023-06-24T23:59:50;4.53;;;4.10;;
